LTBL/IGI METAR and TAF weather

Enter ICAO airport designator
Station Type Date Time Source
LTBL METAR 2020/07/12 01:50 UTC NOAA

LTBL 120150Z 35008KT CAVOK 22/18 Q1007 NOSIG RMK RWY17 34009KT


Station Type Date Time Source
LTBL Decoded METAR 2020/07/12 01:50 UTC NOAA

Izmir / Cigli, Turkey (LTBL) 38-30N 027-01E 5M
Jul 11, 2020 - 09:50 PM EDT / 2020.07.12 0150 UTC
Wind: from the N (350 degrees) at 9 MPH (8 KT):0
Visibility: greater than 7 mile(s):0
Temperature: 71 F (22 C)
Dew Point: 64 F (18 C)
Relative Humidity: 78%
Pressure (altimeter): 29.74 in. Hg (1007 hPa)
ob: LTBL 120150Z 35008KT CAVOK 22/18 Q1007 NOSIG RMK RWY17 34009KT
cycle: 2

Station Type Date Time Source
LTBL TAF UTC NOAA

Error!

Example: see airport list